Time;durP1;ratioP1;P1;durP2;ratioP2;P2;SDS_P1;SDS_P2;PMS_P1;PMS_P2;Temp;Humidity;BMP_temperature;BMP_pressure;BME280_temperature;BME280_humidity;BME280_pressure;Samples;Min_cycle;Max_cycle;Signal;HPM_P1;HPM_P2
2023/04/27 00:01:18;;;;;;;5.28;4.00;;;8.70;62.00;;;;;;5045213;28;20782;-66
2023/04/27 00:03:46;;;;;;;5.60;4.70;;;8.70;62.60;;;;;;5044668;28;20433;-66
2023/04/27 00:06:12;;;;;;;6.50;4.10;;;8.70;62.70;;;;;;5049423;28;20433;-67
2023/04/27 00:08:39;;;;;;;5.65;4.55;;;8.60;62.60;;;;;;5059771;28;20893;-69
2023/04/27 00:11:06;;;;;;;4.55;4.03;;;8.60;63.70;;;;;;5045068;28;20757;-66
2023/04/27 00:13:33;;;;;;;6.88;5.07;;;8.60;62.90;;;;;;5036061;28;20825;-67
2023/04/27 00:16:02;;;;;;;6.77;4.47;;;8.60;62.90;;;;;;5044770;28;20498;-67
2023/04/27 00:18:29;;;;;;;7.97;5.15;;;8.60;63.30;;;;;;5037606;28;20502;-67
2023/04/27 00:20:57;;;;;;;5.73;4.70;;;8.50;63.20;;;;;;5046196;28;20525;-68
2023/04/27 00:23:25;;;;;;;5.53;4.93;;;8.50;63.10;;;;;;5047091;28;20440;-66
2023/04/27 00:25:51;;;;;;;7.43;5.13;;;8.50;63.80;;;;;;5048014;28;20903;-68
2023/04/27 00:28:18;;;;;;;5.55;5.00;;;8.40;64.10;;;;;;5038051;28;20409;-67
2023/04/27 00:30:45;;;;;;;5.35;4.95;;;8.40;64.40;;;;;;5046193;28;20876;-68
2023/04/27 00:33:11;;;;;;;5.33;4.83;;;8.40;63.70;;;;;;5044247;28;20906;-67
2023/04/27 00:35:38;;;;;;;5.70;5.10;;;8.40;64.70;;;;;;5039126;28;20433;-68
2023/04/27 00:38:06;;;;;;;6.10;5.28;;;8.40;65.00;;;;;;5046807;28;20555;-67
2023/04/27 00:40:33;;;;;;;6.60;5.00;;;8.30;65.00;;;;;;5043887;28;20446;-69
2023/04/27 00:43:00;;;;;;;5.50;5.00;;;8.30;65.70;;;;;;5040584;28;20526;-67
2023/04/27 00:45:26;;;;;;;7.35;4.75;;;8.30;66.00;;;;;;5039718;28;20426;-68
2023/04/27 00:47:53;;;;;;;5.70;5.00;;;8.40;66.20;;;;;;5045753;28;20410;-66
2023/04/27 00:50:27;;;;;;;6.38;4.88;;;8.30;65.40;;;;;;5045696;28;20425;-67
2023/04/27 00:52:55;;;;;;;5.00;4.60;;;8.30;66.00;;;;;;5043920;28;21675;-69
2023/04/27 00:55:23;;;;;;;6.70;5.60;;;8.20;66.00;;;;;;5045083;28;20429;-70
2023/04/27 00:57:50;;;;;;;5.60;5.10;;;8.20;66.30;;;;;;5046386;28;20447;-68
2023/04/27 01:00:17;;;;;;;6.57;5.00;;;8.20;67.10;;;;;;5041919;28;20849;-69
2023/04/27 01:02:44;;;;;;;6.35;5.05;;;8.20;67.00;;;;;;5040235;28;20900;-67
2023/04/27 01:05:12;;;;;;;5.60;4.95;;;8.20;67.40;;;;;;5042532;28;20453;-67
2023/04/27 01:07:39;;;;;;;7.32;5.18;;;8.20;67.30;;;;;;5046416;28;20442;-67
2023/04/27 01:10:07;;;;;;;6.68;5.28;;;8.20;66.90;;;;;;5038129;28;20434;-67
2023/04/27 01:12:35;;;;;;;7.15;5.50;;;8.20;67.00;;;;;;5042800;28;20511;-67
2023/04/27 01:15:02;;;;;;;5.97;5.38;;;8.20;67.00;;;;;;5033746;28;20790;-67
2023/04/27 01:17:29;;;;;;;6.30;5.70;;;8.10;67.90;;;;;;5051004;28;20863;-67
2023/04/27 01:19:56;;;;;;;5.97;5.22;;;8.10;67.80;;;;;;5047598;28;20421;-68
2023/04/27 01:22:23;;;;;;;6.20;5.30;;;8.10;67.60;;;;;;5044943;28;21044;-67
2023/04/27 01:24:52;;;;;;;6.95;5.50;;;8.10;68.60;;;;;;5050694;28;20888;-67
2023/04/27 01:27:19;;;;;;;6.10;5.50;;;8.10;68.20;;;;;;5034179;28;20457;-67
2023/04/27 01:29:46;;;;;;;6.00;5.40;;;8.00;68.80;;;;;;5036702;28;20419;-66
2023/04/27 01:32:12;;;;;;;6.82;6.03;;;7.90;68.70;;;;;;5042960;28;20484;-66
2023/04/27 01:34:39;;;;;;;10.00;9.00;;;7.90;70.20;;;;;;5045121;28;20709;-67
2023/04/27 01:37:06;;;;;;;7.15;6.45;;;7.90;69.60;;;;;;5052747;28;20437;-66
2023/04/27 01:39:33;;;;;;;6.20;5.60;;;7.80;69.40;;;;;;5044924;28;20452;-67
2023/04/27 01:42:02;;;;;;;5.90;5.30;;;7.80;69.40;;;;;;5046090;28;20943;-67
2023/04/27 01:44:29;;;;;;;5.97;5.38;;;7.70;71.00;;;;;;5038280;28;20542;-67
2023/04/27 01:46:56;;;;;;;7.30;5.70;;;7.70;71.20;;;;;;5046999;28;20437;-67
2023/04/27 01:49:22;;;;;;;6.45;5.85;;;7.70;71.30;;;;;;5046075;28;20436;-70
2023/04/27 01:51:50;;;;;;;6.40;5.80;;;7.60;71.90;;;;;;5051520;28;20414;-68
2023/04/27 01:54:17;;;;;;;7.55;6.28;;;7.60;72.80;;;;;;5066666;28;20884;-67
2023/04/27 01:56:43;;;;;;;7.35;6.57;;;7.50;72.10;;;;;;5070958;28;20420;-68
2023/04/27 01:59:11;;;;;;;7.15;5.82;;;7.50;72.90;;;;;;5048602;28;20431;-69
2023/04/27 02:01:38;;;;;;;7.03;5.60;;;7.40;72.60;;;;;;5057845;28;20412;-67
2023/04/27 02:04:05;;;;;;;6.80;5.90;;;7.40;74.00;;;;;;5041647;28;20465;-66
2023/04/27 02:06:31;;;;;;;7.50;5.80;;;7.40;74.00;;;;;;5049801;28;20428;-66
2023/04/27 02:08:58;;;;;;;6.30;5.40;;;7.40;74.30;;;;;;5048819;28;20436;-65
2023/04/27 02:11:25;;;;;;;6.53;5.80;;;7.30;75.20;;;;;;5053511;28;20427;-69
2023/04/27 02:13:52;;;;;;;6.93;5.85;;;7.30;75.70;;;;;;5049739;28;20531;-68
2023/04/27 02:16:20;;;;;;;6.38;5.53;;;7.20;75.90;;;;;;5049100;28;20429;-68
2023/04/27 02:18:47;;;;;;;6.78;5.95;;;7.20;75.90;;;;;;5052434;28;20428;-68
2023/04/27 02:21:14;;;;;;;6.50;5.50;;;7.20;76.30;;;;;;5048150;28;20432;-67
2023/04/27 02:23:41;;;;;;;7.28;6.57;;;7.20;76.70;;;;;;5049767;28;20772;-68
2023/04/27 02:26:08;;;;;;;6.70;5.70;;;7.10;77.30;;;;;;5040772;28;20432;-68
2023/04/27 02:28:34;;;;;;;6.80;6.10;;;7.10;77.60;;;;;;5050350;28;20443;-68
2023/04/27 02:31:01;;;;;;;6.75;6.05;;;7.10;77.30;;;;;;5054182;28;20464;-68
2023/04/27 02:33:30;;;;;;;6.60;5.90;;;7.10;77.00;;;;;;5056691;28;20778;-68
2023/04/27 02:35:57;;;;;;;7.15;6.10;;;7.10;77.90;;;;;;5048884;28;20436;-68
2023/04/27 02:38:23;;;;;;;6.38;5.75;;;7.00;78.30;;;;;;5049130;28;20444;-67
2023/04/27 02:40:53;;;;;;;6.53;5.70;;;7.00;78.60;;;;;;5047483;28;20812;-68
2023/04/27 02:43:20;;;;;;;6.88;5.78;;;6.90;78.50;;;;;;5048311;28;20498;-68
2023/04/27 02:45:47;;;;;;;6.97;6.15;;;6.90;78.10;;;;;;5046343;28;20425;-68
2023/04/27 02:48:14;;;;;;;8.60;6.15;;;6.80;78.60;;;;;;5056040;28;20417;-68
2023/04/27 02:50:43;;;;;;;6.38;5.70;;;6.70;78.90;;;;;;5056620;28;20447;-68
2023/04/27 02:53:10;;;;;;;7.50;6.00;;;6.70;79.70;;;;;;5037150;28;20432;-68
2023/04/27 02:55:37;;;;;;;7.47;6.20;;;6.70;80.10;;;;;;5046896;28;20512;-68
2023/04/27 02:58:04;;;;;;;8.00;6.40;;;6.60;80.50;;;;;;5060816;28;20907;-68
2023/04/27 03:00:31;;;;;;;6.60;5.90;;;6.60;80.80;;;;;;5042925;28;20735;-68
2023/04/27 03:02:57;;;;;;;7.28;6.15;;;6.60;81.70;;;;;;5048403;28;20449;-68
2023/04/27 03:05:27;;;;;;;6.90;6.20;;;6.60;82.10;;;;;;5047874;28;20421;-68
2023/04/27 03:07:55;;;;;;;6.95;6.25;;;6.60;82.00;;;;;;5045773;28;20741;-70
2023/04/27 03:10:21;;;;;;;8.60;6.30;;;6.50;83.00;;;;;;5063785;22;20460;-68
2023/04/27 03:12:48;;;;;;;6.27;5.67;;;6.50;83.50;;;;;;5047907;28;20530;-66
2023/04/27 03:15:15;;;;;;;7.28;5.70;;;6.40;83.30;;;;;;5046933;28;20438;-66
2023/04/27 03:17:42;;;;;;;5.93;5.43;;;6.30;83.80;;;;;;5050199;28;20429;-66
2023/04/27 03:20:09;;;;;;;7.07;5.95;;;6.20;84.10;;;;;;5046541;28;20431;-66
2023/04/27 03:22:36;;;;;;;6.37;5.50;;;6.20;85.20;;;;;;5026229;28;20426;-68
2023/04/27 03:25:06;;;;;;;8.38;6.07;;;6.10;85.50;;;;;;5044151;28;20420;-66
2023/04/27 03:27:32;;;;;;;6.88;6.07;;;6.10;85.50;;;;;;5023049;28;20440;-66
2023/04/27 03:29:59;;;;;;;8.02;6.32;;;6.10;85.30;;;;;;5037791;28;20773;-65
2023/04/27 03:32:26;;;;;;;7.65;6.50;;;6.10;85.10;;;;;;5033127;28;20441;-66
2023/04/27 03:34:53;;;;;;;7.50;6.47;;;6.00;85.40;;;;;;5027537;28;20419;-67
2023/04/27 03:37:19;;;;;;;6.70;6.00;;;6.00;85.00;;;;;;5029852;28;20932;-66
2023/04/27 03:39:46;;;;;;;7.10;6.40;;;6.00;85.40;;;;;;5043725;28;20573;-67
2023/04/27 03:42:14;;;;;;;8.70;6.30;;;5.90;85.50;;;;;;5026767;28;20434;-66
2023/04/27 03:44:41;;;;;;;6.97;6.10;;;5.90;86.10;;;;;;5029569;28;20553;-66
2023/04/27 03:47:08;;;;;;;7.75;6.63;;;5.90;86.70;;;;;;5030635;28;20437;-67
2023/04/27 03:49:34;;;;;;;8.13;6.40;;;5.80;86.70;;;;;;5032457;28;20917;-67
2023/04/27 03:52:02;;;;;;;7.53;6.40;;;5.80;86.50;;;;;;5041105;28;20417;-67
2023/04/27 03:54:28;;;;;;;8.88;7.20;;;5.80;87.60;;;;;;5035508;28;20468;-67
2023/04/27 03:56:56;;;;;;;7.30;6.30;;;5.80;87.60;;;;;;5033352;28;20932;-67
2023/04/27 03:59:24;;;;;;;7.82;6.30;;;5.70;88.00;;;;;;5021084;28;20477;-66
2023/04/27 04:01:50;;;;;;;8.57;6.80;;;5.70;88.60;;;;;;5021687;28;20935;-68
2023/04/27 04:04:17;;;;;;;7.37;6.63;;;5.70;89.40;;;;;;5029743;28;20419;-69
2023/04/27 04:06:44;;;;;;;8.10;7.13;;;5.60;88.90;;;;;;5032842;28;20450;-69
2023/04/27 04:09:11;;;;;;;7.95;7.15;;;5.60;89.50;;;;;;5034096;28;20421;-67
2023/04/27 04:11:38;;;;;;;8.15;7.13;;;5.60;89.90;;;;;;5039292;28;20434;-68
2023/04/27 04:14:05;;;;;;;8.10;7.30;;;5.60;90.00;;;;;;5035131;28;20413;-70
2023/04/27 04:16:33;;;;;;;8.40;6.90;;;5.60;89.80;;;;;;5028376;28;20806;-71
2023/04/27 04:19:00;;;;;;;10.20;7.43;;;5.60;89.60;;;;;;5035080;28;20436;-68
2023/04/27 04:21:27;;;;;;;8.70;6.60;;;5.60;90.40;;;;;;5035028;28;20438;-67
2023/04/27 04:23:53;;;;;;;7.68;6.70;;;5.60;90.30;;;;;;5030186;28;20907;-67
2023/04/27 04:26:22;;;;;;;8.00;7.20;;;5.60;90.20;;;;;;5022505;28;20430;-66
2023/04/27 04:28:49;;;;;;;7.50;6.80;;;5.60;90.10;;;;;;5027605;28;20962;-67
2023/04/27 04:31:16;;;;;;;8.38;6.80;;;5.60;90.10;;;;;;5025891;28;20549;-69
2023/04/27 04:33:45;;;;;;;7.95;7.15;;;5.50;90.10;;;;;;5025546;28;20437;-66
2023/04/27 04:36:11;;;;;;;7.90;7.10;;;5.50;90.50;;;;;;5033571;28;20500;-67
2023/04/27 04:38:38;;;;;;;9.40;7.25;;;5.50;90.50;;;;;;5043142;28;20435;-65
2023/04/27 04:41:06;;;;;;;10.10;7.80;;;5.50;90.70;;;;;;5031785;28;20419;-67
2023/04/27 04:43:33;;;;;;;7.80;7.00;;;5.50;90.80;;;;;;5027790;28;20525;-67
2023/04/27 04:46:00;;;;;;;12.07;7.85;;;5.50;90.70;;;;;;5024938;28;20992;-67
2023/04/27 04:48:27;;;;;;;9.90;7.78;;;5.50;90.50;;;;;;5030425;28;20502;-68
2023/04/27 04:50:56;;;;;;;11.05;7.80;;;5.60;90.30;;;;;;5028725;28;20498;-67
2023/04/27 04:53:22;;;;;;;8.10;7.30;;;5.50;90.40;;;;;;5029770;28;20457;-68
2023/04/27 04:55:49;;;;;;;8.80;7.90;;;5.50;90.10;;;;;;5034404;28;20477;-68
2023/04/27 04:58:16;;;;;;;9.73;6.93;;;5.50;90.40;;;;;;5035133;28;20802;-69
2023/04/27 05:00:42;;;;;;;8.23;7.20;;;5.60;90.10;;;;;;5039539;28;20429;-67
2023/04/27 05:03:09;;;;;;;8.52;7.50;;;5.60;90.10;;;;;;5023177;28;20437;-69
2023/04/27 05:05:36;;;;;;;8.55;7.65;;;5.60;90.20;;;;;;5032932;28;20437;-69
2023/04/27 05:08:05;;;;;;;10.07;7.97;;;5.60;90.30;;;;;;5025958;28;20435;-69
2023/04/27 05:10:31;;;;;;;10.90;9.20;;;5.60;90.60;;;;;;5031753;28;21488;-68
2023/04/27 05:12:58;;;;;;;9.63;8.65;;;5.60;90.70;;;;;;5032214;28;20427;-69
2023/04/27 05:15:25;;;;;;;9.25;7.75;;;5.70;90.60;;;;;;5033841;28;20879;-69
2023/04/27 05:17:53;;;;;;;8.40;7.50;;;5.70;90.40;;;;;;5038531;28;20415;-69
2023/04/27 05:20:20;;;;;;;11.25;7.82;;;5.70;90.60;;;;;;5028410;28;20427;-67
2023/04/27 05:22:46;;;;;;;9.82;8.57;;;5.80;90.50;;;;;;5023880;28;20430;-69
2023/04/27 05:25:14;;;;;;;8.82;7.90;;;5.80;90.20;;;;;;5027902;28;20837;-67
2023/04/27 05:27:41;;;;;;;9.20;7.50;;;5.90;90.40;;;;;;5029491;28;20688;-70
2023/04/27 05:30:09;;;;;;;11.05;8.65;;;5.90;90.20;;;;;;5029434;28;20435;-67
2023/04/27 05:32:36;;;;;;;9.70;8.45;;;5.90;90.30;;;;;;5025254;28;20446;-69
2023/04/27 05:35:04;;;;;;;9.35;8.10;;;5.90;90.10;;;;;;5026878;28;20493;-68
2023/04/27 05:37:31;;;;;;;9.55;8.32;;;5.90;90.20;;;;;;5039205;28;20413;-67
2023/04/27 05:39:58;;;;;;;9.63;8.25;;;6.00;90.10;;;;;;5032709;28;20435;-67
2023/04/27 05:42:26;;;;;;;9.27;7.78;;;6.00;89.00;;;;;;5017628;28;20527;-68
2023/04/27 05:44:53;;;;;;;10.27;7.90;;;6.00;89.20;;;;;;5024762;28;20466;-68
2023/04/27 05:47:19;;;;;;;10.88;8.80;;;6.10;89.50;;;;;;5040907;28;20456;-68
2023/04/27 05:49:50;;;;;;;12.75;8.43;;;6.10;89.40;;;;;;5025351;28;20446;-67
2023/04/27 05:52:17;;;;;;;8.40;7.60;;;6.20;88.70;;;;;;5020979;28;20419;-68
2023/04/27 05:54:47;;;;;;;9.02;8.13;;;6.20;88.40;;;;;;5033379;28;20429;-69
2023/04/27 05:57:13;;;;;;;9.50;8.50;;;6.20;88.60;;;;;;5025572;28;20493;-69
2023/04/27 05:59:41;;;;;;;11.30;8.40;;;6.30;88.80;;;;;;5025629;28;20433;-69
2023/04/27 06:02:09;;;;;;;10.15;8.18;;;6.30;88.30;;;;;;5026730;28;20893;-69
2023/04/27 06:04:36;;;;;;;8.90;8.10;;;6.30;88.40;;;;;;5027821;28;20419;-68
2023/04/27 06:07:07;;;;;;;11.15;8.52;;;6.40;87.20;;;;;;5041175;28;20908;-67
2023/04/27 06:09:34;;;;;;;10.65;9.00;;;6.50;87.70;;;;;;5028242;28;20422;-67
2023/04/27 06:12:01;;;;;;;9.67;8.10;;;6.50;88.00;;;;;;5018599;28;20520;-69
2023/04/27 06:14:28;;;;;;;10.35;8.20;;;6.60;86.50;;;;;;5026384;28;20910;-68
2023/04/27 06:16:56;;;;;;;11.10;8.70;;;6.60;84.60;;;;;;5031773;28;20419;-67
2023/04/27 06:19:23;;;;;;;9.30;8.30;;;6.70;84.50;;;;;;5027747;28;20437;-67
2023/04/27 06:21:50;;;;;;;9.70;8.70;;;6.70;83.30;;;;;;5041165;28;20417;-68
2023/04/27 06:24:17;;;;;;;9.77;8.43;;;6.80;82.60;;;;;;5036766;28;20445;-68
2023/04/27 06:26:44;;;;;;;10.82;9.30;;;6.90;82.60;;;;;;5032787;28;20430;-68
2023/04/27 06:29:10;;;;;;;11.30;9.00;;;7.00;82.50;;;;;;5020875;28;20437;-67
2023/04/27 06:31:37;;;;;;;9.85;8.30;;;7.10;82.30;;;;;;5019562;28;20441;-67
2023/04/27 06:34:05;;;;;;;10.20;8.82;;;7.20;81.90;;;;;;5021980;28;20426;-67
2023/04/27 06:36:32;;;;;;;10.00;8.70;;;7.30;81.20;;;;;;5038400;28;20690;-68
2023/04/27 06:38:59;;;;;;;71.03;64.85;;;7.40;80.60;;;;;;5029398;28;20419;-67
2023/04/27 06:41:27;;;;;;;49.53;44.47;;;7.50;79.90;;;;;;5037655;28;20929;-67
2023/04/27 06:43:54;;;;;;;17.27;15.52;;;7.70;78.80;;;;;;5021701;28;20578;-67
2023/04/27 06:46:21;;;;;;;12.30;9.57;;;7.80;77.00;;;;;;5044672;28;20886;-67
2023/04/27 06:48:47;;;;;;;10.68;8.88;;;7.90;76.30;;;;;;5030854;28;20462;-67
2023/04/27 06:51:16;;;;;;;9.93;8.50;;;8.10;75.20;;;;;;5029830;28;20576;-68
2023/04/27 06:53:42;;;;;;;10.73;9.20;;;8.10;74.40;;;;;;5034834;28;20453;-67
2023/04/27 06:56:11;;;;;;;9.50;8.50;;;8.20;74.20;;;;;;5045523;28;20447;-67
2023/04/27 06:58:38;;;;;;;10.30;8.20;;;8.40;73.30;;;;;;5019685;28;20447;-68
2023/04/27 07:01:05;;;;;;;9.60;7.93;;;8.50;72.20;;;;;;5034925;28;20963;-68
2023/04/27 07:03:35;;;;;;;9.13;8.05;;;8.60;71.40;;;;;;5031487;28;20422;-67
2023/04/27 07:06:02;;;;;;;9.45;8.55;;;8.80;70.10;;;;;;5047438;28;20440;-68
2023/04/27 07:08:30;;;;;;;9.45;8.30;;;8.90;69.70;;;;;;5035445;28;20454;-67
2023/04/27 07:10:56;;;;;;;9.70;8.70;;;9.00;68.70;;;;;;5026687;28;20430;-67
2023/04/27 07:13:23;;;;;;;9.50;8.50;;;9.20;67.40;;;;;;5029594;28;20446;-68
2023/04/27 07:15:56;;;;;;;10.07;9.07;;;9.40;67.50;;;;;;5029357;28;20423;-67
2023/04/27 07:18:23;;;;;;;10.00;8.85;;;9.60;66.40;;;;;;5028221;28;20477;-68
2023/04/27 07:20:50;;;;;;;8.90;8.00;;;9.70;63.80;;;;;;5031401;28;20439;-67
2023/04/27 07:23:17;;;;;;;8.55;7.70;;;9.80;64.00;;;;;;5033073;28;20523;-68
2023/04/27 07:25:45;;;;;;;9.10;8.20;;;10.00;63.80;;;;;;5035365;28;20431;-68
2023/04/27 07:28:12;;;;;;;8.70;7.90;;;10.10;62.90;;;;;;5021949;28;20458;-68
2023/04/27 07:30:39;;;;;;;9.00;8.20;;;10.30;61.70;;;;;;5035926;28;20409;-68
2023/04/27 07:33:06;;;;;;;9.27;8.32;;;10.40;61.20;;;;;;5032751;28;20801;-68
2023/04/27 07:35:33;;;;;;;162.43;147.40;;;10.50;59.70;;;;;;5028696;28;20441;-70
2023/04/27 07:38:01;;;;;;;36.35;32.78;;;10.60;59.90;;;;;;5028821;28;20865;-67
2023/04/27 07:40:28;;;;;;;10.52;9.40;;;10.80;59.30;;;;;;5028783;28;20443;-68
2023/04/27 07:42:57;;;;;;;9.43;8.52;;;10.90;57.80;;;;;;5023067;28;20462;-68
2023/04/27 07:45:30;;;;;;;10.60;8.60;;;11.10;56.60;;;;;;5040821;28;20516;-68
2023/04/27 07:47:58;;;;;;;9.40;8.45;;;11.10;55.00;;;;;;5026756;28;20513;-70
2023/04/27 07:50:26;;;;;;;9.73;8.57;;;11.20;54.60;;;;;;5029977;28;20957;-69
2023/04/27 07:52:53;;;;;;;9.60;8.70;;;11.40;54.10;;;;;;5029079;28;20813;-69
2023/04/27 07:55:22;;;;;;;9.03;8.23;;;11.60;52.90;;;;;;5037779;28;20419;-70
2023/04/27 07:57:49;;;;;;;9.80;8.80;;;11.80;50.70;;;;;;5034688;28;20796;-69
2023/04/27 08:00:18;;;;;;;9.25;8.35;;;11.90;50.60;;;;;;5039151;28;20431;-69
2023/04/27 08:02:44;;;;;;;8.60;7.70;;;12.00;50.10;;;;;;5019931;28;20443;-69
2023/04/27 08:05:11;;;;;;;9.70;8.77;;;12.00;49.50;;;;;;5035647;28;20539;-69
2023/04/27 08:07:38;;;;;;;9.48;8.50;;;12.10;49.30;;;;;;5038220;28;20445;-69
2023/04/27 08:10:06;;;;;;;9.27;8.48;;;12.20;48.00;;;;;;5032277;28;20438;-69
2023/04/27 08:12:33;;;;;;;8.50;7.70;;;12.30;47.30;;;;;;5037117;28;20428;-70
2023/04/27 08:15:00;;;;;;;9.68;8.68;;;12.40;47.60;;;;;;5034659;28;20419;-70
2023/04/27 08:17:28;;;;;;;9.18;8.25;;;12.60;47.70;;;;;;5045145;28;20441;-70
2023/04/27 08:19:54;;;;;;;9.40;8.40;;;12.90;46.40;;;;;;5027749;28;20805;-70
2023/04/27 08:22:21;;;;;;;8.10;6.68;;;13.10;46.30;;;;;;5032331;28;20431;-68
2023/04/27 08:24:48;;;;;;;9.10;7.60;;;13.20;43.60;;;;;;5030672;28;20809;-70
2023/04/27 08:27:15;;;;;;;8.18;7.40;;;13.30;43.90;;;;;;5026569;28;20441;-70
2023/04/27 08:29:46;;;;;;;9.38;8.48;;;13.50;44.10;;;;;;5027480;28;20990;-68
2023/04/27 08:32:13;;;;;;;8.87;7.97;;;13.70;43.40;;;;;;5022600;28;20426;-70
2023/04/27 08:34:43;;;;;;;9.50;8.50;;;13.80;43.30;;;;;;5022874;28;20951;-69
2023/04/27 08:37:10;;;;;;;8.82;7.75;;;13.90;42.10;;;;;;5030228;28;20422;-69
2023/04/27 08:39:37;;;;;;;8.32;7.63;;;14.00;42.10;;;;;;5029107;28;20518;-70
2023/04/27 08:42:10;;;;;;;8.43;7.55;;;14.10;42.50;;;;;;5024268;28;20440;-64
2023/04/27 08:44:39;;;;;;;9.10;8.20;;;14.30;41.20;;;;;;5037731;28;20417;-67
2023/04/27 08:47:06;;;;;;;9.07;8.27;;;14.50;45.30;;;;;;5032547;28;20429;-68
2023/04/27 08:49:33;;;;;;;8.90;8.00;;;14.80;44.60;;;;;;5030566;28;20456;-66
2023/04/27 08:52:02;;;;;;;8.73;7.82;;;15.00;41.70;;;;;;5025827;28;20431;-70
2023/04/27 08:54:29;;;;;;;11.00;7.90;;;15.10;42.80;;;;;;5029598;28;20522;-69
2023/04/27 08:56:57;;;;;;;9.55;8.38;;;15.00;39.90;;;;;;5030610;28;20506;-72
2023/04/27 08:59:24;;;;;;;9.48;8.57;;;14.90;41.10;;;;;;5027951;28;20909;-70
2023/04/27 09:01:50;;;;;;;10.93;8.60;;;15.00;40.70;;;;;;5027205;28;20430;-70
2023/04/27 09:04:18;;;;;;;8.85;8.05;;;14.90;41.60;;;;;;5028943;28;20435;-70
2023/04/27 09:06:45;;;;;;;8.77;7.90;;;14.80;40.80;;;;;;5035144;28;20442;-69
2023/04/27 09:09:22;;;;;;;9.32;8.43;;;15.10;41.60;;;;;;5032951;28;20569;-69
2023/04/27 09:11:50;;;;;;;9.40;8.60;;;15.10;40.30;;;;;;5032665;28;20430;-69
2023/04/27 09:14:18;;;;;;;9.10;8.30;;;15.20;40.50;;;;;;5034328;28;20438;-69
2023/04/27 09:16:45;;;;;;;9.05;8.25;;;15.20;39.30;;;;;;5031418;28;20435;-69
2023/04/27 09:19:12;;;;;;;9.32;8.38;;;15.30;38.30;;;;;;5024573;28;20794;-68
2023/04/27 09:21:38;;;;;;;9.88;8.25;;;15.20;39.20;;;;;;5031886;28;20427;-69
2023/04/27 09:24:13;;;;;;;8.60;7.90;;;15.20;39.20;;;;;;5031396;28;20522;-69
2023/04/27 09:26:41;;;;;;;9.18;8.10;;;15.30;39.50;;;;;;5029702;28;20510;-69
2023/04/27 09:29:08;;;;;;;9.00;8.20;;;15.40;38.50;;;;;;5030072;28;20485;-69
2023/04/27 09:31:35;;;;;;;9.52;8.68;;;15.50;38.80;;;;;;5033236;28;20469;-69
2023/04/27 09:34:04;;;;;;;9.60;8.65;;;15.50;38.40;;;;;;5031994;28;20449;-67
2023/04/27 09:36:32;;;;;;;9.00;8.20;;;15.60;37.70;;;;;;5027724;28;20439;-68
2023/04/27 09:39:03;;;;;;;9.93;8.93;;;15.60;37.80;;;;;;5027207;28;20528;-69
2023/04/27 09:41:32;;;;;;;9.27;8.35;;;15.70;36.10;;;;;;5029179;28;20468;-69
2023/04/27 09:44:00;;;;;;;9.30;8.50;;;15.80;37.30;;;;;;5026729;28;20438;-69
2023/04/27 09:46:29;;;;;;;9.07;8.18;;;15.90;37.60;;;;;;5027303;28;20431;-68
2023/04/27 09:48:56;;;;;;;10.00;8.10;;;16.20;37.60;;;;;;5032153;28;20457;-69
2023/04/27 09:51:23;;;;;;;9.35;7.90;;;16.50;36.30;;;;;;5030126;28;20430;-67
2023/04/27 09:53:53;;;;;;;8.45;7.75;;;16.70;36.20;;;;;;5030006;28;20897;-69
2023/04/27 09:56:35;;;;;;;7.95;7.25;;;16.90;35.90;;;;;;5029229;28;20454;-68
2023/04/27 09:59:17;;;;;;;9.50;7.47;;;17.10;35.30;;;;;;5031423;28;20435;-68
2023/04/27 10:01:47;;;;;;;9.10;8.20;;;17.10;35.30;;;;;;5025877;28;20558;-70
2023/04/27 10:04:29;;;;;;;8.80;8.00;;;17.30;35.30;;;;;;5029179;28;20536;-69
2023/04/27 10:07:01;;;;;;;9.13;8.30;;;17.30;34.50;;;;;;5030238;28;20441;-69
2023/04/27 10:09:34;;;;;;;9.00;8.20;;;17.30;33.80;;;;;;5032101;28;20435;-68
2023/04/27 10:12:15;;;;;;;9.38;8.05;;;17.20;33.10;;;;;;5045164;28;20427;-68
2023/04/27 10:14:53;;;;;;;9.05;8.25;;;17.20;35.00;;;;;;5030628;28;20430;-68
2023/04/27 10:17:25;;;;;;;8.32;7.53;;;17.30;34.00;;;;;;5032261;28;20598;-68
2023/04/27 10:19:56;;;;;;;9.10;8.07;;;17.30;34.40;;;;;;5031991;28;20537;-68
2023/04/27 10:22:23;;;;;;;9.35;8.35;;;17.50;34.20;;;;;;5031227;28;20588;-68
2023/04/27 10:24:51;;;;;;;9.45;8.15;;;17.70;33.40;;;;;;5039344;28;20447;-68
2023/04/27 10:27:21;;;;;;;9.27;8.40;;;17.70;33.40;;;;;;5031273;28;20933;-67
2023/04/27 10:29:50;;;;;;;8.70;7.90;;;17.70;33.60;;;;;;5030764;28;20430;-68
2023/04/27 10:32:22;;;;;;;8.90;8.00;;;17.70;33.70;;;;;;5028373;28;20433;-70
2023/04/27 10:34:49;;;;;;;10.02;9.02;;;17.80;35.00;;;;;;5029986;28;20500;-68
2023/04/27 10:37:20;;;;;;;8.80;8.00;;;17.80;32.00;;;;;;5029695;28;20431;-68
2023/04/27 10:39:47;;;;;;;8.43;7.50;;;17.60;33.40;;;;;;5035658;28;20435;-68
2023/04/27 10:42:14;;;;;;;7.70;6.90;;;17.70;33.50;;;;;;5036312;28;20453;-68
2023/04/27 10:44:41;;;;;;;9.77;8.57;;;17.80;33.90;;;;;;5037390;28;20498;-68
2023/04/27 10:47:18;;;;;;;9.00;8.20;;;17.90;31.90;;;;;;5029588;28;20810;-68
2023/04/27 10:49:45;;;;;;;8.68;7.88;;;17.70;32.10;;;;;;5036972;28;20430;-68
2023/04/27 10:52:12;;;;;;;8.90;8.00;;;17.60;33.10;;;;;;5039609;22;20443;-71
2023/04/27 10:54:40;;;;;;;8.55;7.85;;;17.60;33.20;;;;;;5025214;28;20761;-70
2023/04/27 10:57:08;;;;;;;7.72;7.03;;;17.70;33.40;;;;;;5022113;28;20549;-71
2023/04/27 10:59:47;;;;;;;8.70;7.80;;;17.90;33.60;;;;;;5017445;28;20821;-70
2023/04/27 11:02:15;;;;;;;8.38;7.45;;;18.30;33.40;;;;;;5016979;28;20850;-69
2023/04/27 11:04:42;;;;;;;7.43;6.73;;;18.60;32.40;;;;;;5025676;28;20438;-69
2023/04/27 11:07:10;;;;;;;8.30;7.60;;;18.80;31.90;;;;;;5016839;28;20434;-69
2023/04/27 11:09:37;;;;;;;7.93;7.25;;;18.80;31.40;;;;;;5013459;28;20499;-69
2023/04/27 11:12:07;;;;;;;8.80;7.90;;;19.00;31.60;;;;;;5017243;28;20438;-71
2023/04/27 11:14:35;;;;;;;8.90;8.10;;;19.10;30.70;;;;;;5025295;28;20509;-71
2023/04/27 11:17:03;;;;;;;8.32;7.53;;;19.20;30.20;;;;;;5021769;28;20446;-71
2023/04/27 11:19:31;;;;;;;8.50;7.55;;;19.10;30.00;;;;;;5026722;28;20419;-71
2023/04/27 11:22:05;;;;;;;7.65;6.95;;;19.00;30.60;;;;;;5025544;28;20442;-69
2023/04/27 11:24:32;;;;;;;7.97;7.18;;;19.20;30.40;;;;;;5024993;28;20820;-69
2023/04/27 11:26:59;;;;;;;8.52;7.82;;;19.20;30.00;;;;;;5025667;28;20423;-69
2023/04/27 11:29:26;;;;;;;8.30;7.50;;;19.00;29.80;;;;;;5022456;28;20488;-63
2023/04/27 11:31:53;;;;;;;9.00;8.20;;;18.90;31.60;;;;;;5015363;28;20441;-63
2023/04/27 11:34:21;;;;;;;8.10;7.30;;;19.10;30.10;;;;;;5018234;28;20443;-63
2023/04/27 11:37:00;;;;;;;7.85;6.65;;;19.00;30.50;;;;;;5022813;28;20435;-64
2023/04/27 11:39:27;;;;;;;8.50;7.60;;;19.20;31.70;;;;;;5022199;28;20439;-62
2023/04/27 11:41:54;;;;;;;8.52;7.82;;;19.40;29.40;;;;;;5022336;28;20427;-66
2023/04/27 11:44:26;;;;;;;8.00;7.30;;;19.60;29.50;;;;;;5017318;28;20494;-64
2023/04/27 11:46:53;;;;;;;7.68;6.97;;;19.60;28.90;;;;;;5021407;28;20960;-63
2023/04/27 11:49:20;;;;;;;7.80;7.00;;;19.40;29.40;;;;;;5021476;28;20882;-64
2023/04/27 11:51:47;;;;;;;7.90;7.10;;;19.60;30.60;;;;;;5025108;28;20418;-66
2023/04/27 11:54:15;;;;;;;7.13;6.40;;;19.80;30.40;;;;;;5017977;28;20549;-69
2023/04/27 11:56:43;;;;;;;7.30;6.60;;;20.10;29.50;;;;;;5024588;28;20546;-67
2023/04/27 11:59:19;;;;;;;7.38;6.68;;;20.30;28.50;;;;;;5022333;28;20434;-67
2023/04/27 12:01:46;;;;;;;7.43;6.72;;;20.30;29.00;;;;;;5023343;28;20495;-70
2023/04/27 12:04:13;;;;;;;7.30;6.60;;;20.30;28.60;;;;;;5024716;28;20422;-69
2023/04/27 12:06:40;;;;;;;7.10;6.50;;;20.10;29.20;;;;;;5020030;28;20442;-70
2023/04/27 12:09:06;;;;;;;6.40;5.80;;;20.10;29.10;;;;;;5023412;28;20443;-70
2023/04/27 12:11:34;;;;;;;6.97;6.30;;;20.30;29.10;;;;;;5020375;28;20515;-69
2023/04/27 12:14:02;;;;;;;7.00;6.30;;;20.20;28.50;;;;;;5018566;28;20431;-70
2023/04/27 12:16:29;;;;;;;7.32;6.20;;;20.10;28.50;;;;;;5025052;28;20419;-70
2023/04/27 12:18:56;;;;;;;6.90;6.20;;;19.90;28.80;;;;;;5024653;28;20445;-71
2023/04/27 12:21:23;;;;;;;8.55;6.10;;;20.00;28.80;;;;;;5023871;28;20434;-69
2023/04/27 12:23:50;;;;;;;6.85;6.18;;;20.20;28.30;;;;;;5024678;28;20461;-69
2023/04/27 12:26:17;;;;;;;6.40;5.80;;;20.30;27.90;;;;;;5024786;28;20419;-69
2023/04/27 12:28:45;;;;;;;7.28;6.57;;;20.40;28.20;;;;;;5023201;28;20448;-69
2023/04/27 12:31:17;;;;;;;6.20;5.53;;;20.60;27.70;;;;;;5015250;28;20440;-69
2023/04/27 12:33:44;;;;;;;7.45;5.80;;;20.80;27.80;;;;;;5012248;28;20422;-70
2023/04/27 12:36:10;;;;;;;6.82;6.10;;;21.30;27.10;;;;;;5024614;28;20487;-69
2023/04/27 12:38:37;;;;;;;7.45;6.65;;;22.00;26.50;;;;;;5017856;28;20446;-69
2023/04/27 12:41:04;;;;;;;7.28;6.20;;;22.30;26.20;;;;;;5021676;28;20415;-69
2023/04/27 12:43:31;;;;;;;7.90;7.13;;;22.80;25.90;;;;;;5022848;28;20507;-70
2023/04/27 12:45:59;;;;;;;7.40;6.70;;;22.60;25.70;;;;;;5022242;28;20798;-68
2023/04/27 12:48:26;;;;;;;7.30;5.60;;;22.20;26.90;;;;;;5023146;28;20514;-68
2023/04/27 12:50:53;;;;;;;6.18;5.60;;;22.40;26.10;;;;;;5023046;28;20540;-68
2023/04/27 12:53:20;;;;;;;5.32;4.82;;;22.60;26.10;;;;;;5024627;28;20885;-69